createdAt,value
2018-01-29T00:00:37.208Z,1013
2018-01-29T00:01:40.008Z,1013
2018-01-29T00:02:42.502Z,1012.9
2018-01-29T00:03:45.005Z,1012.9
2018-01-29T00:04:47.795Z,1013
2018-01-29T00:05:50.285Z,1012.8
2018-01-29T00:06:52.786Z,1012.9
2018-01-29T00:07:55.283Z,1012.9
2018-01-29T00:08:57.791Z,1012.9
2018-01-29T00:10:00.302Z,1012.9
2018-01-29T00:11:03.356Z,1012.9
2018-01-29T00:12:05.858Z,1012.9
2018-01-29T00:13:08.362Z,1012.8
2018-01-29T00:14:10.864Z,1012.9
2018-01-29T00:15:13.649Z,1013
2018-01-29T00:16:16.147Z,1012.9
2018-01-29T00:17:18.637Z,1012.9
2018-01-29T00:18:21.151Z,1012.8
2018-01-29T00:19:23.654Z,1012.9
2018-01-29T00:20:26.147Z,1012.9
2018-01-29T00:21:28.932Z,1012.9
2018-01-29T00:22:31.468Z,1012.9
2018-01-29T00:23:33.937Z,1012.9
2018-01-29T00:24:36.439Z,1013
2018-01-29T00:25:38.926Z,1013
2018-01-29T00:26:41.427Z,1012.9
2018-01-29T00:27:43.929Z,1012.9
2018-01-29T00:28:46.430Z,1012.9
2018-01-29T00:29:48.913Z,1012.9
2018-01-29T00:30:51.413Z,1012.9
2018-01-29T00:31:53.902Z,1012.9
2018-01-29T00:32:56.420Z,1012.9
2018-01-29T00:33:58.921Z,1012.9
2018-01-29T00:35:01.408Z,1012.8
2018-01-29T00:36:03.912Z,1012.8
2018-01-29T00:37:06.410Z,1012.8
2018-01-29T00:38:08.913Z,1012.8
2018-01-29T00:39:11.409Z,1012.8
2018-01-29T00:40:13.904Z,1012.8
2018-01-29T00:41:16.700Z,1012.8
2018-01-29T00:42:19.479Z,1012.8
2018-01-29T00:43:21.982Z,1012.8
2018-01-29T00:44:24.486Z,1012.8
2018-01-29T00:45:26.978Z,1012.7
2018-01-29T00:46:29.491Z,1012.8
2018-01-29T00:47:31.985Z,1012.8
2018-01-29T00:48:34.490Z,1012.7
2018-01-29T00:49:37.280Z,1012.8
2018-01-29T00:50:39.776Z,1012.8
2018-01-29T00:51:42.565Z,1012.8
2018-01-29T00:52:45.069Z,1012.7
2018-01-29T00:53:47.568Z,1012.8
2018-01-29T00:54:50.073Z,1012.9
2018-01-29T00:55:52.580Z,1012.8
2018-01-29T00:56:55.069Z,1012.8
2018-01-29T00:57:57.576Z,1012.8
2018-01-29T00:59:00.071Z,1012.7
2018-01-29T01:00:02.563Z,1012.7
2018-01-29T01:01:05.067Z,1012.7
2018-01-29T01:02:07.559Z,1012.7
2018-01-29T01:03:10.061Z,1012.8
2018-01-29T01:04:12.563Z,1012.8
2018-01-29T01:05:15.061Z,1012.8
2018-01-29T01:06:17.567Z,1012.8
2018-01-29T01:07:20.066Z,1012.9
2018-01-29T01:08:23.147Z,1012.9
2018-01-29T01:09:25.650Z,1012.9
2018-01-29T01:10:28.440Z,1012.8
2018-01-29T01:11:30.939Z,1012.9
2018-01-29T01:12:33.436Z,1012.9
2018-01-29T01:13:35.936Z,1012.8
2018-01-29T01:14:38.432Z,1012.9
2018-01-29T01:15:40.952Z,1012.9
2018-01-29T01:16:43.450Z,1012.8
2018-01-29T01:17:45.950Z,1012.9
2018-01-29T01:18:48.445Z,1012.8
2018-01-29T01:19:50.951Z,1012.7
2018-01-29T01:20:53.738Z,1012.8
2018-01-29T01:21:56.242Z,1012.8
2018-01-29T01:22:58.723Z,1012.8
2018-01-29T01:24:01.233Z,1012.8
2018-01-29T01:25:03.737Z,1012.8
2018-01-29T01:26:06.234Z,1012.8
2018-01-29T01:27:08.726Z,1012.7
2018-01-29T01:28:11.220Z,1012.7
2018-01-29T01:29:13.713Z,1012.7
2018-01-29T01:30:16.222Z,1012.8
2018-01-29T01:31:18.716Z,1012.8
2018-01-29T01:32:21.214Z,1012.8
2018-01-29T01:33:23.993Z,1012.7
2018-01-29T01:34:26.500Z,1012.7
2018-01-29T01:35:29.001Z,1012.7
2018-01-29T01:36:31.496Z,1012.8
2018-01-29T01:37:33.996Z,1012.8
2018-01-29T01:38:36.495Z,1012.7
2018-01-29T01:39:38.995Z,1012.8
2018-01-29T01:40:41.500Z,1012.8
2018-01-29T01:41:43.996Z,1012.8
2018-01-29T01:42:46.492Z,1012.8
2018-01-29T01:43:49.002Z,1012.8
2018-01-29T01:44:51.804Z,1012.7
2018-01-29T01:45:54.307Z,1012.7
2018-01-29T01:46:56.805Z,1012.8
2018-01-29T01:47:59.308Z,1012.7
2018-01-29T01:49:01.798Z,1012.7
2018-01-29T01:50:04.305Z,1012.8
2018-01-29T01:51:06.797Z,1012.7
2018-01-29T01:52:09.305Z,1012.6
2018-01-29T01:53:11.799Z,1012.6
2018-01-29T01:54:14.582Z,1012.7
2018-01-29T01:55:17.083Z,1012.7
2018-01-29T01:56:19.584Z,1012.7
2018-01-29T01:57:22.070Z,1012.7
2018-01-29T01:58:24.580Z,1012.7
2018-01-29T01:59:27.081Z,1012.6
2018-01-29T02:00:29.863Z,1012.7
2018-01-29T02:01:32.366Z,1012.6
2018-01-29T02:02:34.869Z,1012.6
2018-01-29T02:03:37.368Z,1012.5
2018-01-29T02:04:39.868Z,1012.5
2018-01-29T02:05:42.652Z,1012.6
2018-01-29T02:06:45.160Z,1012.5
2018-01-29T02:07:47.955Z,1012.5
2018-01-29T02:08:50.461Z,1012.5
2018-01-29T02:09:52.969Z,1012.5
2018-01-29T02:10:55.462Z,1012.5
2018-01-29T02:11:57.964Z,1012.4
2018-01-29T02:13:00.464Z,1012.4
2018-01-29T02:14:02.959Z,1012.4
2018-01-29T02:15:05.480Z,1012.4
2018-01-29T02:16:08.575Z,1012.4
2018-01-29T02:17:11.060Z,1012.4
2018-01-29T02:18:13.564Z,1012.3
2018-01-29T02:19:16.077Z,1012.4
2018-01-29T02:20:18.571Z,1012.3
2018-01-29T02:21:21.073Z,1012.3
2018-01-29T02:22:23.552Z,1012.3
2018-01-29T02:23:26.357Z,1012.2
2018-01-29T02:24:28.859Z,1012.3
2018-01-29T02:25:31.352Z,1012.2
2018-01-29T02:26:33.854Z,1012.2
2018-01-29T02:27:36.352Z,1012.1
2018-01-29T02:28:38.854Z,1012.2
2018-01-29T02:29:41.368Z,1012.1
2018-01-29T02:30:43.867Z,1012.1
2018-01-29T02:31:46.356Z,1012.1
2018-01-29T02:32:49.146Z,1012.1
2018-01-29T02:33:51.646Z,1012.2
2018-01-29T02:34:54.153Z,1012
2018-01-29T02:35:56.941Z,1012.1
2018-01-29T02:36:59.445Z,1011.9
2018-01-29T02:38:01.949Z,1012
2018-01-29T02:39:04.732Z,1012
2018-01-29T02:40:07.530Z,1012
2018-01-29T02:41:10.038Z,1011.9
2018-01-29T02:42:12.522Z,1011.9
2018-01-29T02:43:15.016Z,1012
2018-01-29T02:44:17.514Z,1011.9
2018-01-29T02:45:20.010Z,1011.9
2018-01-29T02:46:22.516Z,1011.9
2018-01-29T02:47:25.018Z,1012
2018-01-29T02:48:27.499Z,1011.9
2018-01-29T02:49:30.590Z,1011.8
2018-01-29T02:50:33.381Z,1012
2018-01-29T02:51:36.186Z,1011.8
2018-01-29T02:52:39.005Z,1011.8
2018-01-29T02:53:41.498Z,1011.8
2018-01-29T02:54:43.993Z,1011.7
2018-01-29T02:55:46.512Z,1011.8
2018-01-29T02:56:49.002Z,1011.8
2018-01-29T02:57:51.510Z,1011.8
2018-01-29T02:58:54.008Z,1011.7
2018-01-29T02:59:56.506Z,1011.8
2018-01-29T03:00:59.315Z,1011.8
2018-01-29T03:02:01.819Z,1011.8
2018-01-29T03:03:04.305Z,1011.8
2018-01-29T03:04:06.808Z,1011.7
2018-01-29T03:05:09.300Z,1011.8
2018-01-29T03:06:11.804Z,1011.8
2018-01-29T03:07:14.586Z,1011.7
2018-01-29T03:08:17.087Z,1011.7
2018-01-29T03:09:19.591Z,1011.8
2018-01-29T03:10:22.079Z,1011.7
2018-01-29T03:11:24.585Z,1011.8
2018-01-29T03:12:27.078Z,1011.8
2018-01-29T03:13:29.571Z,1011.7
2018-01-29T03:14:32.073Z,1011.7
2018-01-29T03:15:34.566Z,1011.7
2018-01-29T03:16:37.070Z,1011.5
2018-01-29T03:17:39.573Z,1011.8
2018-01-29T03:18:42.074Z,1011.6
2018-01-29T03:19:44.860Z,1011.7
2018-01-29T03:20:47.360Z,1011.5
2018-01-29T03:21:49.848Z,1011.4
2018-01-29T03:22:52.350Z,1011.6
2018-01-29T03:23:54.861Z,1011.5
2018-01-29T03:24:57.354Z,1011.7
2018-01-29T03:25:59.856Z,1011.6
2018-01-29T03:27:02.352Z,1011.6
2018-01-29T03:28:04.845Z,1011.6
2018-01-29T03:29:07.342Z,1011.6
2018-01-29T03:30:09.844Z,1011.5
2018-01-29T03:31:12.329Z,1011.7
2018-01-29T03:32:14.836Z,1011.5
2018-01-29T03:33:17.346Z,1011.5
2018-01-29T03:34:19.834Z,1011.5
2018-01-29T03:35:22.336Z,1011.6
2018-01-29T03:36:24.834Z,1011.5
2018-01-29T03:37:27.631Z,1011.4
2018-01-29T03:38:30.122Z,1011.5
2018-01-29T03:39:32.625Z,1011.5
2018-01-29T03:40:35.126Z,1011.4
2018-01-29T03:41:37.925Z,1011.4
2018-01-29T03:42:40.417Z,1011.4
2018-01-29T03:43:42.923Z,1011.4
2018-01-29T03:44:45.410Z,1011.4
2018-01-29T03:45:48.502Z,1011.4
2018-01-29T03:46:51.001Z,1011.5
2018-01-29T03:47:53.495Z,1011.3
2018-01-29T03:48:56.005Z,1011.4
2018-01-29T03:49:58.786Z,1011.5
2018-01-29T03:51:01.576Z,1011.3
2018-01-29T03:52:04.079Z,1011.4
2018-01-29T03:53:06.579Z,1011.3
2018-01-29T03:54:09.358Z,1011.2
2018-01-29T03:55:12.167Z,1011.2
2018-01-29T03:56:14.645Z,1011.3
2018-01-29T03:57:17.155Z,1011.3
2018-01-29T03:58:19.650Z,1011.2
2018-01-29T03:59:22.142Z,1011.3
2018-01-29T04:00:24.645Z,1011.3
2018-01-29T04:01:27.148Z,1011.2
2018-01-29T04:02:29.641Z,1011.1
2018-01-29T04:03:32.143Z,1011.1
2018-01-29T04:04:34.646Z,1011.2
2018-01-29T04:05:37.149Z,1011.2
2018-01-29T04:06:39.641Z,1011.1
2018-01-29T04:07:42.145Z,1011.2
2018-01-29T04:08:44.644Z,1011.2
2018-01-29T04:09:47.144Z,1011.2
2018-01-29T04:10:49.930Z,1011.2
2018-01-29T04:11:52.414Z,1011.2
2018-01-29T04:12:54.920Z,1011.2
2018-01-29T04:13:57.418Z,1011.2
2018-01-29T04:14:59.917Z,1011.1
2018-01-29T04:16:02.417Z,1011.1
2018-01-29T04:17:04.926Z,1011.2
2018-01-29T04:18:07.417Z,1011.2
2018-01-29T04:19:09.925Z,1011.1
2018-01-29T04:20:12.430Z,1011.2
2018-01-29T04:21:14.906Z,1011
2018-01-29T04:22:17.415Z,1011.1
2018-01-29T04:23:19.906Z,1011.2
2018-01-29T04:24:22.407Z,1011.2
2018-01-29T04:25:24.914Z,1011.2
2018-01-29T04:26:27.698Z,1011.1
2018-01-29T04:27:30.191Z,1011.1
2018-01-29T04:28:32.705Z,1011.1
2018-01-29T04:29:35.199Z,1011
2018-01-29T04:30:37.698Z,1010.9
2018-01-29T04:31:40.196Z,1010.9
2018-01-29T04:32:42.690Z,1011
2018-01-29T04:33:45.176Z,1010.9
2018-01-29T04:34:47.676Z,1011
2018-01-29T04:35:50.185Z,1011
2018-01-29T04:36:52.680Z,1011
2018-01-29T04:37:55.165Z,1011
2018-01-29T04:38:57.662Z,1010.9
2018-01-29T04:40:00.451Z,1011
2018-01-29T04:41:03.004Z,1011
2018-01-29T04:42:05.512Z,1011
2018-01-29T04:43:07.989Z,1011
2018-01-29T04:44:10.486Z,1011
2018-01-29T04:45:13.005Z,1011.1
2018-01-29T04:46:15.500Z,1011
2018-01-29T04:47:18.002Z,1011
2018-01-29T04:48:20.784Z,1011
2018-01-29T04:49:23.288Z,1011
2018-01-29T04:50:25.786Z,1010.9
2018-01-29T04:51:28.285Z,1011.1
2018-01-29T04:52:30.773Z,1010.9
2018-01-29T04:53:33.272Z,1010.9
2018-01-29T04:54:35.780Z,1010.9
2018-01-29T04:55:38.557Z,1010.8
2018-01-29T04:56:41.353Z,1010.8
2018-01-29T04:57:44.148Z,1010.8
2018-01-29T04:58:46.940Z,1010.7
2018-01-29T04:59:49.735Z,1010.8
2018-01-29T05:00:52.230Z,1010.8
2018-01-29T05:01:54.733Z,1010.8
2018-01-29T05:02:57.229Z,1010.8
2018-01-29T05:03:59.732Z,1010.8
2018-01-29T05:05:02.228Z,1010.8
2018-01-29T05:06:05.015Z,1011
2018-01-29T05:07:07.503Z,1010.9
2018-01-29T05:08:10.288Z,1010.9
2018-01-29T05:09:12.814Z,1010.8
2018-01-29T05:10:15.299Z,1010.7
2018-01-29T05:11:17.805Z,1010.7
2018-01-29T05:12:20.302Z,1010.7
2018-01-29T05:13:22.794Z,1010.7
2018-01-29T05:14:25.300Z,1010.8
2018-01-29T05:15:27.879Z,1010.8
2018-01-29T05:16:30.367Z,1010.7
2018-01-29T05:17:32.876Z,1010.7
2018-01-29T05:18:35.365Z,1010.7
2018-01-29T05:19:37.860Z,1010.7
2018-01-29T05:20:40.362Z,1010.8
2018-01-29T05:21:42.862Z,1010.7
2018-01-29T05:22:45.356Z,1010.7
2018-01-29T05:23:47.861Z,1010.7
2018-01-29T05:24:50.646Z,1010.7
2018-01-29T05:25:53.154Z,1010.8
2018-01-29T05:26:55.660Z,1010.7
2018-01-29T05:27:58.155Z,1010.6
2018-01-29T05:29:00.649Z,1011
2018-01-29T05:30:03.150Z,1010.7
2018-01-29T05:31:05.652Z,1010.7
2018-01-29T05:32:08.144Z,1010.8
2018-01-29T05:33:10.642Z,1010.8
2018-01-29T05:34:13.145Z,1010.3
2018-01-29T05:35:15.637Z,1010.7
2018-01-29T05:36:18.427Z,1010.7
2018-01-29T05:37:20.923Z,1010.6
2018-01-29T05:38:23.423Z,1010.5
2018-01-29T05:39:25.923Z,1010.6
2018-01-29T05:40:28.415Z,1010.6
2018-01-29T05:41:30.908Z,1010.6
2018-01-29T05:42:33.404Z,1010.7
2018-01-29T05:43:35.903Z,1010.7
2018-01-29T05:44:38.970Z,1010.6
2018-01-29T05:45:41.464Z,1010.5
2018-01-29T05:46:43.965Z,1010.6
2018-01-29T05:47:46.460Z,1010.5
2018-01-29T05:48:48.956Z,1010.5
2018-01-29T05:49:51.445Z,1010.6
2018-01-29T05:50:53.940Z,1010.6
2018-01-29T05:51:56.767Z,1010.5
2018-01-29T05:52:59.550Z,1010.6
2018-01-29T05:54:02.045Z,1010.5
2018-01-29T05:55:04.542Z,1010.7
2018-01-29T05:56:07.049Z,1010.6
2018-01-29T05:57:09.545Z,1010.6
2018-01-29T05:58:12.047Z,1010.5
2018-01-29T05:59:14.536Z,1010.6
2018-01-29T06:00:17.029Z,1010.5
2018-01-29T06:01:19.545Z,1010.6
2018-01-29T06:02:22.037Z,1010.5
2018-01-29T06:03:24.536Z,1010.5
2018-01-29T06:04:27.330Z,1010.6
2018-01-29T06:05:30.119Z,1010.6
2018-01-29T06:06:32.601Z,1010.5
2018-01-29T06:07:35.107Z,1010.5
2018-01-29T06:08:37.610Z,1010.6
2018-01-29T06:09:40.392Z,1010.5
2018-01-29T06:10:43.200Z,1010.6
2018-01-29T06:11:45.692Z,1010.5
2018-01-29T06:12:48.186Z,1010.5
2018-01-29T06:13:50.695Z,1010.5
2018-01-29T06:14:53.183Z,1010.5
2018-01-29T06:15:55.689Z,1010.5
2018-01-29T06:16:58.189Z,1010.6
2018-01-29T06:18:00.673Z,1010.4
2018-01-29T06:19:03.177Z,1010.3
2018-01-29T06:20:05.680Z,1010.4
2018-01-29T06:21:08.453Z,1010.3
2018-01-29T06:22:10.955Z,1010.3
2018-01-29T06:23:13.453Z,1010.4
2018-01-29T06:24:15.941Z,1010.2
2018-01-29T06:25:18.457Z,1010.2
2018-01-29T06:26:20.957Z,1010.3
2018-01-29T06:27:23.443Z,1010.3
2018-01-29T06:28:25.950Z,1010.3
2018-01-29T06:29:28.446Z,1010.8
2018-01-29T06:30:30.949Z,1010.3
2018-01-29T06:31:33.435Z,1010.3
2018-01-29T06:32:35.956Z,1010.2
2018-01-29T06:33:38.457Z,1010.1
2018-01-29T06:34:41.241Z,1010.3
2018-01-29T06:35:43.737Z,1010.3
2018-01-29T06:36:46.227Z,1010.2
2018-01-29T06:37:48.732Z,1010.3
2018-01-29T06:38:51.529Z,1010.3
2018-01-29T06:39:54.017Z,1010.1
2018-01-29T06:40:56.511Z,1010.1
2018-01-29T06:41:59.019Z,1010
2018-01-29T06:43:01.515Z,1010.2
2018-01-29T06:44:04.015Z,1010.2
2018-01-29T06:45:06.793Z,1010.1
2018-01-29T06:46:09.293Z,1010.1
2018-01-29T06:47:11.796Z,1010.2
2018-01-29T06:48:14.297Z,1010.2
2018-01-29T06:49:17.080Z,1010.2
2018-01-29T06:50:19.591Z,1010.1
2018-01-29T06:51:22.089Z,1010.2
2018-01-29T06:52:24.593Z,1010.1
2018-01-29T06:53:27.084Z,1010.1
2018-01-29T06:54:29.584Z,1010
2018-01-29T06:55:32.079Z,1009.9
2018-01-29T06:56:34.576Z,1010
2018-01-29T06:57:37.078Z,1009.9
2018-01-29T06:58:39.571Z,1010.2
2018-01-29T06:59:42.101Z,1010.1
2018-01-29T07:00:44.574Z,1010
2018-01-29T07:01:47.064Z,1010
2018-01-29T07:02:49.859Z,1010.2
2018-01-29T07:03:52.353Z,1010
2018-01-29T07:04:55.136Z,1010.1
2018-01-29T07:05:57.641Z,1010.3
2018-01-29T07:07:00.136Z,1010.1
2018-01-29T07:08:02.627Z,1009.9
2018-01-29T07:09:05.420Z,1010.1
2018-01-29T07:10:07.913Z,1010
2018-01-29T07:11:10.411Z,1010
2018-01-29T07:12:12.914Z,1010
2018-01-29T07:13:15.413Z,1009.9
2018-01-29T07:14:17.904Z,1010
2018-01-29T07:15:20.417Z,1009.9
2018-01-29T07:16:23.201Z,1009.9
2018-01-29T07:17:25.698Z,1010
2018-01-29T07:18:28.196Z,1010
2018-01-29T07:19:30.693Z,1010
2018-01-29T07:20:33.202Z,1010
2018-01-29T07:21:35.706Z,1010
2018-01-29T07:22:38.191Z,1010
2018-01-29T07:23:40.693Z,1009.8
2018-01-29T07:24:43.187Z,1009.9
2018-01-29T07:25:45.684Z,1010
2018-01-29T07:26:48.185Z,1009.9
2018-01-29T07:27:50.683Z,1009.9
2018-01-29T07:28:53.177Z,1010.2
2018-01-29T07:29:55.690Z,1009.8
2018-01-29T07:30:58.180Z,1009.6
2018-01-29T07:32:00.682Z,1009.8
2018-01-29T07:33:03.168Z,1009.7
2018-01-29T07:34:05.671Z,1009.5
2018-01-29T07:35:08.163Z,1009.7
2018-01-29T07:36:10.659Z,1009.4
2018-01-29T07:37:13.203Z,1009.7
2018-01-29T07:38:15.656Z,1009.6
2018-01-29T07:39:18.160Z,1009.5
2018-01-29T07:40:20.959Z,1009.5
2018-01-29T07:41:23.446Z,1009.6
2018-01-29T07:42:25.947Z,1009.6
2018-01-29T07:43:28.748Z,1009.6
2018-01-29T07:44:31.249Z,1009.5
2018-01-29T07:45:34.348Z,1009.4
2018-01-29T07:46:36.817Z,1009.6
2018-01-29T07:47:39.306Z,1009.6
2018-01-29T07:48:41.816Z,1009.5
2018-01-29T07:49:44.312Z,1009.4
2018-01-29T07:50:46.815Z,1009.6
2018-01-29T07:51:49.317Z,1009.5
2018-01-29T07:52:51.810Z,1009.6
2018-01-29T07:53:54.312Z,1009.3
2018-01-29T07:54:56.817Z,1009.4
2018-01-29T07:55:59.298Z,1009.4
2018-01-29T07:57:01.800Z,1009.3
2018-01-29T07:58:04.305Z,1009.4
2018-01-29T07:59:07.383Z,1009.4
2018-01-29T08:00:09.885Z,1009.4
2018-01-29T08:01:12.387Z,1009.3
2018-01-29T08:02:14.881Z,1009.4
2018-01-29T08:03:17.373Z,1009.3
2018-01-29T08:04:19.869Z,1009.2
2018-01-29T08:05:22.377Z,1009.2
2018-01-29T08:06:24.871Z,1009.1
2018-01-29T08:07:27.372Z,1009.2
2018-01-29T08:08:29.867Z,1009.3
2018-01-29T08:09:32.371Z,1009.2
2018-01-29T08:10:34.865Z,1009.3
2018-01-29T08:11:37.364Z,1009.3
2018-01-29T08:12:40.144Z,1009.3
2018-01-29T08:13:42.642Z,1009.3
2018-01-29T08:14:45.145Z,1009.3
2018-01-29T08:15:47.940Z,1009.3
2018-01-29T08:16:50.428Z,1009.2
2018-01-29T08:17:52.922Z,1009.2
2018-01-29T08:18:55.414Z,1009.2
2018-01-29T08:19:57.929Z,1009.2
2018-01-29T08:21:00.427Z,1009.1
2018-01-29T08:22:02.978Z,1009.3
2018-01-29T08:23:05.421Z,1009.2
2018-01-29T08:24:07.919Z,1009.2
2018-01-29T08:25:10.424Z,1009.2
2018-01-29T08:26:13.210Z,1009.2
2018-01-29T08:27:15.702Z,1009.3
2018-01-29T08:28:18.197Z,1009.1
2018-01-29T08:29:20.688Z,1009.2
2018-01-29T08:30:23.194Z,1009.1
2018-01-29T08:31:25.680Z,1009.3
2018-01-29T08:32:28.183Z,1009.1
2018-01-29T08:33:30.982Z,1009
2018-01-29T08:34:33.475Z,1009
2018-01-29T08:35:35.976Z,1009
2018-01-29T08:36:38.773Z,1009
2018-01-29T08:37:41.552Z,1008.9
2018-01-29T08:38:44.069Z,1008.9
2018-01-29T08:39:46.566Z,1009
2018-01-29T08:40:49.051Z,1009
2018-01-29T08:41:51.556Z,1008.9
2018-01-29T08:42:54.050Z,1008.6
2018-01-29T08:43:56.875Z,1008.9
2018-01-29T08:44:59.390Z,1008.9
2018-01-29T08:46:01.872Z,1009
2018-01-29T08:47:04.369Z,1008.9
2018-01-29T08:48:06.872Z,1008.9
2018-01-29T08:49:09.366Z,1008.9
2018-01-29T08:50:11.869Z,1008.9
2018-01-29T08:51:14.369Z,1008.6
2018-01-29T08:52:17.146Z,1008.7
2018-01-29T08:53:19.941Z,1008.8
2018-01-29T08:54:22.440Z,1008.8
2018-01-29T08:55:24.941Z,1008.9
2018-01-29T08:56:27.431Z,1008.8
2018-01-29T08:57:30.226Z,1008.7
2018-01-29T08:58:32.717Z,1008.8
2018-01-29T08:59:35.499Z,1008.7
2018-01-29T09:00:38.574Z,1008.8
2018-01-29T09:01:41.067Z,1008.7
2018-01-29T09:02:43.869Z,1008.7
2018-01-29T09:03:46.372Z,1008.7
2018-01-29T09:04:48.849Z,1008.6
2018-01-29T09:05:51.345Z,1008.6
2018-01-29T09:06:53.853Z,1008.5
2018-01-29T09:07:56.659Z,1008.4
2018-01-29T09:08:59.152Z,1008.5
2018-01-29T09:10:01.942Z,1008.3
2018-01-29T09:11:04.435Z,1008.5
2018-01-29T09:12:06.946Z,1008.4
2018-01-29T09:13:09.445Z,1008.4
2018-01-29T09:14:11.935Z,1008.4
2018-01-29T09:15:14.442Z,1008.4
2018-01-29T09:16:16.934Z,1008.4
2018-01-29T09:17:19.438Z,1008.4
2018-01-29T09:18:22.218Z,1008.4
2018-01-29T09:19:24.704Z,1008.3
2018-01-29T09:20:27.208Z,1008.4
2018-01-29T09:21:29.712Z,1008.3
2018-01-29T09:22:32.214Z,1008.4
2018-01-29T09:23:34.997Z,1008.4
2018-01-29T09:24:37.498Z,1008.3
2018-01-29T09:25:39.997Z,1008.3
2018-01-29T09:26:42.513Z,1008.3
2018-01-29T09:27:45.019Z,1008.2
2018-01-29T09:28:47.786Z,1008.2
2018-01-29T09:29:50.284Z,1008.1
2018-01-29T09:30:52.790Z,1008.2
2018-01-29T09:31:55.285Z,1008.1
2018-01-29T09:32:57.789Z,1008.3
2018-01-29T09:34:00.286Z,1008.2
2018-01-29T09:35:02.788Z,1008.3
2018-01-29T09:36:05.274Z,1008.3
2018-01-29T09:37:07.788Z,1008.2
2018-01-29T09:38:10.274Z,1008.2
2018-01-29T09:39:13.083Z,1008.4
2018-01-29T09:40:15.652Z,1008.4
2018-01-29T09:41:18.079Z,1008.3
2018-01-29T09:42:20.582Z,1008.2
2018-01-29T09:43:23.380Z,1008.7
2018-01-29T09:44:25.871Z,1008.4
2018-01-29T09:45:28.389Z,1008.4
2018-01-29T09:46:30.877Z,1008.3
2018-01-29T09:47:33.407Z,1008.4
2018-01-29T09:48:35.876Z,1008.5
2018-01-29T09:49:38.379Z,1008.3
2018-01-29T09:50:41.173Z,1008.6
2018-01-29T09:51:44.272Z,1008.5
2018-01-29T09:52:46.750Z,1008.4
2018-01-29T09:53:49.539Z,1008.5
2018-01-29T09:54:52.332Z,1008.5
2018-01-29T09:55:55.114Z,1008
2018-01-29T09:56:57.618Z,1008.7
2018-01-29T09:58:00.120Z,1008.6
2018-01-29T09:59:02.617Z,1008.5
2018-01-29T10:00:05.410Z,1008.4
2018-01-29T10:01:07.902Z,1008.4
2018-01-29T10:02:10.416Z,1008.4
2018-01-29T10:03:12.903Z,1008.5
2018-01-29T10:04:15.399Z,1008.2
2018-01-29T10:05:17.894Z,1008.6
2018-01-29T10:06:20.745Z,1008.3
2018-01-29T10:07:23.534Z,1008.3
2018-01-29T10:08:26.036Z,1008.4
2018-01-29T10:09:28.529Z,1008.3
2018-01-29T10:10:31.038Z,1008.5
2018-01-29T10:11:33.533Z,1008.6
2018-01-29T10:12:36.035Z,1008.4
2018-01-29T10:13:38.555Z,1008.3
2018-01-29T10:14:41.021Z,1008.5
2018-01-29T10:15:43.518Z,1008.4
2018-01-29T10:16:46.320Z,1008.4
2018-01-29T10:17:48.859Z,1008.3
2018-01-29T10:18:51.623Z,1008.3
2018-01-29T10:19:54.428Z,1008.4
2018-01-29T10:20:56.984Z,1008.5
2018-01-29T10:22:00.122Z,1008.3
2018-01-29T10:23:02.844Z,1008.3
2018-01-29T10:24:05.550Z,1008.4
2018-01-29T10:25:08.055Z,1008.3
2018-01-29T10:26:10.560Z,1008.3
2018-01-29T10:27:13.067Z,1008.3
2018-01-29T10:28:15.855Z,1008.3
2018-01-29T10:29:18.351Z,1008.3
2018-01-29T10:30:20.856Z,1008.3
2018-01-29T10:31:23.637Z,1008.2
2018-01-29T10:32:26.136Z,1008.4
2018-01-29T10:33:28.641Z,1008.3
2018-01-29T10:34:31.140Z,1008.2
2018-01-29T10:35:33.632Z,1008.3
2018-01-29T10:36:36.143Z,1008.2
2018-01-29T10:37:38.633Z,1008.3
2018-01-29T10:38:41.134Z,1008.1
2018-01-29T10:39:43.637Z,1008.2
2018-01-29T10:40:46.120Z,1008.3
2018-01-29T10:41:48.629Z,1008.2
2018-01-29T10:42:51.122Z,1008.4
2018-01-29T10:43:53.620Z,1008.3
2018-01-29T10:44:56.126Z,1008.1
2018-01-29T10:45:58.918Z,1008.3
2018-01-29T10:47:01.414Z,1008.2
2018-01-29T10:48:03.914Z,1008.3
2018-01-29T10:49:06.413Z,1008.2
2018-01-29T10:50:08.912Z,1008.3
2018-01-29T10:51:11.416Z,1008.2
2018-01-29T10:52:13.899Z,1008.3
2018-01-29T10:53:16.403Z,1008.3
2018-01-29T10:54:18.901Z,1008.3
2018-01-29T10:55:21.397Z,1008.1
2018-01-29T10:56:24.190Z,1008.1
2018-01-29T10:57:27.267Z,1008.3
2018-01-29T10:58:29.778Z,1008.3
2018-01-29T10:59:32.258Z,1008.2
2018-01-29T11:00:34.762Z,1008.2
2018-01-29T11:01:37.264Z,1008.2
2018-01-29T11:02:39.761Z,1008.2
2018-01-29T11:03:42.262Z,1008.2
2018-01-29T11:04:44.763Z,1008.2
2018-01-29T11:05:47.254Z,1008.3
2018-01-29T11:06:50.059Z,1008.2
2018-01-29T11:07:52.559Z,1008.1
2018-01-29T11:08:55.047Z,1008.3
2018-01-29T11:09:57.578Z,1008.1
2018-01-29T11:11:00.076Z,1008.1
2018-01-29T11:12:02.862Z,1008.1
2018-01-29T11:13:05.356Z,1008.1
2018-01-29T11:14:08.420Z,1008.1
2018-01-29T11:15:10.914Z,1008.1
2018-01-29T11:16:13.418Z,1008
2018-01-29T11:17:16.190Z,1007.9
2018-01-29T11:18:18.688Z,1008.1
2018-01-29T11:19:21.479Z,1007.9
2018-01-29T11:20:23.980Z,1008
2018-01-29T11:21:26.473Z,1007.8
2018-01-29T11:22:28.971Z,1008
2018-01-29T11:23:31.757Z,1007.9
2018-01-29T11:24:34.254Z,1007.9
2018-01-29T11:25:36.757Z,1007.8
2018-01-29T11:26:39.256Z,1007.8
2018-01-29T11:27:42.328Z,1007.8
2018-01-29T11:28:45.122Z,1007.8
2018-01-29T11:29:47.624Z,1007.8
2018-01-29T11:30:50.116Z,1007.8
2018-01-29T11:31:52.607Z,1007.8
2018-01-29T11:32:55.118Z,1007.8
2018-01-29T11:33:57.610Z,1007.8
2018-01-29T11:35:00.393Z,1007.7
2018-01-29T11:36:02.895Z,1007.7
2018-01-29T11:37:05.390Z,1007.8
2018-01-29T11:38:07.889Z,1007.8
2018-01-29T11:39:10.742Z,1007.9
2018-01-29T11:40:13.236Z,1007.8
2018-01-29T11:41:15.741Z,1007.8
2018-01-29T11:42:18.234Z,1007.8
2018-01-29T11:43:20.728Z,1007.7
2018-01-29T11:44:23.238Z,1007.7
2018-01-29T11:45:25.732Z,1007.8
2018-01-29T11:46:28.228Z,1007.8
2018-01-29T11:47:31.014Z,1007.7
2018-01-29T11:48:33.509Z,1007.7
2018-01-29T11:49:36.011Z,1007.7
2018-01-29T11:50:38.518Z,1007.6
2018-01-29T11:51:41.285Z,1007.7
2018-01-29T11:52:44.075Z,1007.7
2018-01-29T11:53:46.576Z,1007.6
2018-01-29T11:54:49.073Z,1007.6
2018-01-29T11:55:51.571Z,1007.7
2018-01-29T11:56:54.357Z,1007.6
2018-01-29T11:57:57.149Z,1007.5
2018-01-29T11:58:59.641Z,1007.6
2018-01-29T12:00:02.144Z,1007.7
2018-01-29T12:01:04.639Z,1007.5
2018-01-29T12:02:07.133Z,1007.5
2018-01-29T12:03:09.917Z,1007.6
2018-01-29T12:04:12.720Z,1007.5
2018-01-29T12:05:15.206Z,1007.5
2018-01-29T12:06:17.701Z,1007.4
2018-01-29T12:07:20.204Z,1007.4
2018-01-29T12:08:22.690Z,1007.4
2018-01-29T12:09:25.188Z,1007.5
2018-01-29T12:10:27.685Z,1007.5
2018-01-29T12:11:30.184Z,1007.4
2018-01-29T12:12:32.685Z,1007.4
2018-01-29T12:13:35.181Z,1007.3
2018-01-29T12:14:37.677Z,1007.3
2018-01-29T12:15:40.181Z,1007.3
2018-01-29T12:16:42.975Z,1007.3
2018-01-29T12:17:45.460Z,1007.3
2018-01-29T12:18:47.962Z,1007.3
2018-01-29T12:19:50.458Z,1007.3
2018-01-29T12:20:52.952Z,1007.3
2018-01-29T12:21:55.452Z,1007.2
2018-01-29T12:22:57.934Z,1007.2
2018-01-29T12:24:00.419Z,1007.2
2018-01-29T12:25:02.938Z,1007.2
2018-01-29T12:26:05.719Z,1007.2
2018-01-29T12:27:08.210Z,1007.3
2018-01-29T12:28:11.020Z,1007.2
2018-01-29T12:29:13.512Z,1007.2
2018-01-29T12:30:16.012Z,1007.2
2018-01-29T12:31:18.500Z,1007.2
2018-01-29T12:32:21.305Z,1007.1
2018-01-29T12:33:23.795Z,1007.2
2018-01-29T12:34:26.297Z,1007.1
2018-01-29T12:35:28.795Z,1007.1
2018-01-29T12:36:31.585Z,1007.1
2018-01-29T12:37:34.088Z,1007.1
2018-01-29T12:38:36.587Z,1007.1
2018-01-29T12:39:39.072Z,1007.1
2018-01-29T12:40:41.882Z,1007
2018-01-29T12:41:44.387Z,1007
2018-01-29T12:42:47.497Z,1006.9
2018-01-29T12:43:49.998Z,1007
2018-01-29T12:44:52.494Z,1007
2018-01-29T12:45:54.991Z,1007
2018-01-29T12:46:57.777Z,1007
2018-01-29T12:48:00.277Z,1007
2018-01-29T12:49:02.764Z,1006.9
2018-01-29T12:50:05.275Z,1006.7
2018-01-29T12:51:07.757Z,1007
2018-01-29T12:52:10.547Z,1006.8
2018-01-29T12:53:13.041Z,1006.9
2018-01-29T12:54:15.539Z,1006.8
2018-01-29T12:55:18.035Z,1006.9
2018-01-29T12:56:20.542Z,1006.8
2018-01-29T12:57:23.027Z,1006.8
2018-01-29T12:58:25.533Z,1006.8
2018-01-29T12:59:28.029Z,1006.7
2018-01-29T13:00:30.522Z,1006.7
2018-01-29T13:01:33.015Z,1006.9
2018-01-29T13:02:35.509Z,1006.6
2018-01-29T13:03:38.009Z,1006.6
2018-01-29T13:04:40.512Z,1006.7